createdAt,value
2023-12-05T00:00:29.435Z,0.00
2023-12-05T00:01:29.394Z,0.00
2023-12-05T00:02:29.369Z,0.00
2023-12-05T00:03:29.606Z,0.00
2023-12-05T00:04:29.540Z,0.00
2023-12-05T00:05:29.334Z,0.00
2023-12-05T00:06:29.373Z,0.00
2023-12-05T00:07:29.397Z,0.00
2023-12-05T00:08:29.289Z,0.00
2023-12-05T00:09:29.314Z,0.00
2023-12-05T00:10:29.286Z,0.00
2023-12-05T00:11:29.272Z,0.00
2023-12-05T00:12:29.270Z,0.00
2023-12-05T00:13:29.250Z,0.00
2023-12-05T00:14:29.237Z,0.00
2023-12-05T00:15:29.285Z,0.00
2023-12-05T00:16:29.223Z,0.00
2023-12-05T00:17:29.222Z,0.00
2023-12-05T00:18:29.354Z,0.00
2023-12-05T00:19:29.314Z,0.00
2023-12-05T00:20:29.161Z,0.00
2023-12-05T00:21:29.172Z,0.00
2023-12-05T00:22:29.134Z,0.00
2023-12-05T00:23:29.128Z,0.00
2023-12-05T00:24:29.251Z,0.00
2023-12-05T00:25:29.112Z,0.00
2023-12-05T00:26:29.086Z,0.00
2023-12-05T00:27:29.153Z,0.00
2023-12-05T00:28:29.056Z,0.00
2023-12-05T00:29:29.066Z,0.00
2023-12-05T00:30:29.076Z,0.00
2023-12-05T00:31:29.024Z,0.00
2023-12-05T00:32:29.071Z,0.00
2023-12-05T00:33:29.221Z,0.00
2023-12-05T00:34:29.073Z,0.00
2023-12-05T00:35:28.990Z,0.00
2023-12-05T00:36:29.021Z,0.00
2023-12-05T00:37:28.978Z,0.00
2023-12-05T00:38:28.970Z,0.00
2023-12-05T00:39:28.987Z,0.00
2023-12-05T00:40:28.944Z,0.00
2023-12-05T00:41:28.977Z,0.00
2023-12-05T00:42:28.987Z,0.00
2023-12-05T00:43:28.992Z,0.00
2023-12-05T00:44:28.954Z,0.00
2023-12-05T00:45:29.046Z,0.00
2023-12-05T00:46:28.993Z,0.00
2023-12-05T00:47:28.972Z,0.00
2023-12-05T00:48:28.952Z,0.00
2023-12-05T00:49:28.949Z,0.00
2023-12-05T00:50:34.034Z,0.00
2023-12-05T00:51:28.880Z,0.00
2023-12-05T00:52:28.808Z,0.00
2023-12-05T00:53:28.798Z,0.00
2023-12-05T00:54:28.810Z,0.00
2023-12-05T00:55:28.792Z,0.00
2023-12-05T00:56:28.759Z,0.00
2023-12-05T00:57:28.830Z,0.00
2023-12-05T00:58:28.767Z,0.00
2023-12-05T00:59:28.733Z,0.00
2023-12-05T01:00:28.747Z,0.00
2023-12-05T01:01:28.749Z,0.00
2023-12-05T01:02:28.704Z,0.00
2023-12-05T01:03:28.740Z,0.00
2023-12-05T01:04:28.905Z,0.00
2023-12-05T01:05:28.843Z,0.00
2023-12-05T01:06:28.694Z,0.00
2023-12-05T01:07:28.647Z,0.00
2023-12-05T01:08:28.634Z,0.00
2023-12-05T01:09:28.743Z,0.00
2023-12-05T01:10:28.829Z,0.00
2023-12-05T01:11:28.596Z,0.00
2023-12-05T01:12:28.604Z,0.00
2023-12-05T01:13:28.582Z,0.00
2023-12-05T01:14:28.578Z,0.00
2023-12-05T01:15:28.566Z,0.00
2023-12-05T01:16:28.533Z,0.00
2023-12-05T01:17:28.551Z,0.00
2023-12-05T01:18:28.655Z,0.00
2023-12-05T01:19:28.557Z,0.00
2023-12-05T01:20:28.503Z,0.00
2023-12-05T01:21:28.520Z,0.00
2023-12-05T01:22:28.466Z,0.00
2023-12-05T01:23:28.458Z,0.00
2023-12-05T01:24:28.459Z,0.00
2023-12-05T01:25:28.554Z,0.00
2023-12-05T01:26:28.417Z,0.00
2023-12-05T01:27:28.432Z,0.00
2023-12-05T01:28:28.395Z,0.00
2023-12-05T01:29:28.383Z,0.00
2023-12-05T01:30:28.368Z,0.00
2023-12-05T01:31:28.379Z,0.00
2023-12-05T01:32:28.381Z,0.00
2023-12-05T01:33:28.397Z,0.00
2023-12-05T01:34:28.363Z,0.00
2023-12-05T01:35:28.341Z,0.00
2023-12-05T01:36:28.355Z,0.00
2023-12-05T01:37:28.307Z,0.00
2023-12-05T01:38:28.305Z,0.00
2023-12-05T01:39:28.280Z,0.00
2023-12-05T01:40:28.271Z,0.00
2023-12-05T01:41:28.261Z,0.00
2023-12-05T01:42:28.272Z,0.00
2023-12-05T01:43:28.240Z,0.00
2023-12-05T01:44:28.222Z,0.00
2023-12-05T01:45:28.245Z,0.00
2023-12-05T01:46:28.189Z,0.00
2023-12-05T01:47:28.249Z,0.00
2023-12-05T01:48:28.316Z,0.00
2023-12-05T01:49:30.104Z,0.00
2023-12-05T01:50:28.194Z,0.00
2023-12-05T01:51:28.340Z,0.00
2023-12-05T01:52:28.135Z,0.00
2023-12-05T01:53:28.142Z,0.00
2023-12-05T01:54:28.137Z,0.00
2023-12-05T01:55:28.139Z,0.00
2023-12-05T01:56:28.105Z,0.00
2023-12-05T01:57:28.123Z,0.00
2023-12-05T01:58:28.072Z,0.00
2023-12-05T01:59:28.075Z,0.00
2023-12-05T02:00:28.083Z,0.00
2023-12-05T02:01:28.078Z,0.00
2023-12-05T02:02:28.033Z,0.00
2023-12-05T02:03:28.096Z,0.00
2023-12-05T02:04:28.176Z,0.00
2023-12-05T02:05:28.368Z,0.00
2023-12-05T02:06:27.997Z,0.00
2023-12-05T02:07:27.986Z,0.00
2023-12-05T02:08:27.954Z,0.00
2023-12-05T02:09:27.962Z,0.00
2023-12-05T02:10:27.944Z,0.00
2023-12-05T02:11:27.937Z,0.00
2023-12-05T02:12:27.925Z,0.00
2023-12-05T02:13:27.904Z,0.00
2023-12-05T02:14:27.902Z,0.00
2023-12-05T02:15:27.910Z,0.00
2023-12-05T02:16:27.869Z,0.00
2023-12-05T02:17:27.904Z,0.00
2023-12-05T02:18:27.960Z,0.00
2023-12-05T02:19:27.898Z,0.00
2023-12-05T02:20:27.833Z,0.00
2023-12-05T02:21:27.819Z,0.00
2023-12-05T02:22:27.789Z,0.00
2023-12-05T02:23:27.781Z,0.00
2023-12-05T02:24:27.807Z,0.00
2023-12-05T02:25:27.768Z,0.00
2023-12-05T02:26:27.771Z,0.00
2023-12-05T02:27:27.783Z,0.00
2023-12-05T02:28:27.739Z,0.00
2023-12-05T02:29:27.725Z,0.00
2023-12-05T02:30:27.721Z,0.00
2023-12-05T02:31:27.720Z,0.00
2023-12-05T02:32:27.737Z,0.00
2023-12-05T02:33:27.857Z,0.00
2023-12-05T02:34:27.749Z,0.00
2023-12-05T02:35:27.662Z,0.00
2023-12-05T02:36:27.659Z,0.00
2023-12-05T02:37:27.637Z,0.00
2023-12-05T02:38:27.622Z,0.00
2023-12-05T02:39:27.639Z,0.00
2023-12-05T02:40:27.630Z,0.00
2023-12-05T02:41:27.583Z,0.00
2023-12-05T02:42:27.589Z,0.00
2023-12-05T02:43:27.567Z,0.00
2023-12-05T02:44:27.562Z,0.00
2023-12-05T02:45:27.567Z,0.00
2023-12-05T02:46:27.517Z,0.00
2023-12-05T02:47:27.517Z,0.00
2023-12-05T02:48:27.682Z,0.00
2023-12-05T02:49:27.585Z,0.00
2023-12-05T02:50:27.489Z,0.00
2023-12-05T02:51:27.506Z,0.00
2023-12-05T02:52:27.463Z,0.00
2023-12-05T02:53:27.461Z,0.00
2023-12-05T02:54:27.466Z,0.00
2023-12-05T02:55:27.457Z,0.00
2023-12-05T02:56:27.421Z,0.00
2023-12-05T02:57:27.445Z,0.00
2023-12-05T02:58:27.409Z,0.00
2023-12-05T02:59:27.395Z,0.00
2023-12-05T03:00:27.399Z,0.00
2023-12-05T03:01:27.472Z,0.00
2023-12-05T03:02:27.362Z,0.00
2023-12-05T03:03:27.432Z,0.00
2023-12-05T03:04:27.505Z,0.00
2023-12-05T03:05:27.458Z,0.00
2023-12-05T03:06:27.442Z,0.00
2023-12-05T03:07:27.318Z,0.00
2023-12-05T03:08:27.300Z,0.00
2023-12-05T03:09:27.302Z,0.00
2023-12-05T03:10:27.269Z,0.00
2023-12-05T03:11:27.259Z,0.00
2023-12-05T03:12:27.296Z,0.00
2023-12-05T03:13:27.259Z,0.00
2023-12-05T03:14:27.226Z,0.00
2023-12-05T03:15:27.225Z,0.00
2023-12-05T03:16:27.213Z,0.00
2023-12-05T03:17:27.242Z,0.00
2023-12-05T03:18:27.318Z,0.00
2023-12-05T03:19:27.246Z,0.00
2023-12-05T03:20:27.160Z,0.00
2023-12-05T03:21:27.167Z,0.00
2023-12-05T03:22:27.119Z,0.00
2023-12-05T03:23:27.128Z,0.00
2023-12-05T03:24:27.113Z,0.00
2023-12-05T03:25:27.099Z,0.00
2023-12-05T03:26:27.077Z,0.00
2023-12-05T03:27:27.119Z,0.00
2023-12-05T03:28:27.061Z,0.00
2023-12-05T03:29:27.061Z,0.00
2023-12-05T03:30:27.066Z,0.00
2023-12-05T03:31:27.056Z,0.00
2023-12-05T03:32:27.026Z,0.00
2023-12-05T03:33:27.036Z,0.00
2023-12-05T03:34:27.046Z,0.00
2023-12-05T03:35:26.995Z,0.00
2023-12-05T03:36:27.006Z,0.00
2023-12-05T03:37:26.965Z,0.00
2023-12-05T03:38:26.959Z,0.00
2023-12-05T03:39:26.968Z,0.00
2023-12-05T03:40:26.933Z,0.00
2023-12-05T03:41:26.931Z,0.00
2023-12-05T03:42:26.932Z,0.00
2023-12-05T03:43:26.896Z,0.00
2023-12-05T03:44:26.890Z,0.00
2023-12-05T03:45:26.929Z,0.00
2023-12-05T03:46:26.867Z,0.00
2023-12-05T03:47:26.859Z,0.00
2023-12-05T03:48:27.041Z,0.00
2023-12-05T03:49:26.920Z,0.00
2023-12-05T03:50:26.852Z,0.00
2023-12-05T03:51:26.835Z,0.00
2023-12-05T03:52:26.806Z,0.00
2023-12-05T03:53:26.803Z,0.00
2023-12-05T03:54:26.812Z,0.00
2023-12-05T03:55:26.780Z,0.00
2023-12-05T03:56:26.758Z,0.00
2023-12-05T03:57:26.754Z,0.00
2023-12-05T03:58:26.734Z,0.00
2023-12-05T03:59:26.728Z,0.00
2023-12-05T04:00:26.753Z,0.00
2023-12-05T04:01:26.795Z,0.00
2023-12-05T04:02:26.696Z,0.00
2023-12-05T04:03:26.795Z,0.00
2023-12-05T04:04:26.797Z,0.00
2023-12-05T04:05:26.692Z,0.00
2023-12-05T04:06:26.788Z,0.00
2023-12-05T04:07:26.617Z,0.00
2023-12-05T04:08:26.622Z,0.00
2023-12-05T04:09:26.622Z,0.00
2023-12-05T04:10:28.128Z,0.00
2023-12-05T04:11:26.578Z,0.00
2023-12-05T04:12:26.627Z,0.00
2023-12-05T04:13:29.966Z,0.00
2023-12-05T04:14:26.543Z,0.00
2023-12-05T04:15:26.551Z,0.00
2023-12-05T04:16:26.525Z,0.00
2023-12-05T04:17:26.561Z,0.00
2023-12-05T04:18:26.627Z,0.00
2023-12-05T04:19:26.567Z,0.00
2023-12-05T04:20:26.493Z,0.00
2023-12-05T04:21:26.493Z,0.00
2023-12-05T04:22:26.466Z,0.00
2023-12-05T04:23:26.460Z,0.00
2023-12-05T04:24:26.474Z,0.00
2023-12-05T04:25:26.447Z,0.00
2023-12-05T04:26:28.341Z,0.00
2023-12-05T04:27:26.427Z,0.00
2023-12-05T04:28:26.397Z,0.00
2023-12-05T04:29:26.384Z,0.00
2023-12-05T04:30:26.430Z,0.00
2023-12-05T04:31:26.364Z,0.00
2023-12-05T04:32:26.409Z,0.00
2023-12-05T04:33:26.367Z,0.00
2023-12-05T04:34:26.495Z,0.00
2023-12-05T04:35:26.324Z,0.00
2023-12-05T04:36:26.414Z,0.00
2023-12-05T04:37:26.316Z,0.00
2023-12-05T04:38:26.296Z,0.00
2023-12-05T04:39:26.299Z,0.00
2023-12-05T04:40:26.266Z,0.00
2023-12-05T04:41:26.247Z,0.00
2023-12-05T04:42:26.264Z,0.00
2023-12-05T04:43:26.261Z,0.00
2023-12-05T04:44:26.219Z,0.00
2023-12-05T04:45:26.228Z,0.00
2023-12-05T04:46:26.203Z,0.00
2023-12-05T04:47:26.232Z,0.00
2023-12-05T04:48:26.302Z,0.00
2023-12-05T04:49:26.270Z,0.00
2023-12-05T04:50:26.163Z,0.00
2023-12-05T04:51:26.186Z,0.00
2023-12-05T04:52:26.131Z,0.00
2023-12-05T04:53:26.145Z,0.00
2023-12-05T04:54:26.215Z,0.00
2023-12-05T04:55:26.102Z,0.00
2023-12-05T04:56:26.085Z,0.00
2023-12-05T04:57:26.102Z,0.00
2023-12-05T04:58:26.070Z,0.00
2023-12-05T04:59:26.062Z,0.00
2023-12-05T05:00:26.118Z,0.00
2023-12-05T05:01:26.027Z,0.00
2023-12-05T05:02:26.035Z,0.00
2023-12-05T05:03:26.163Z,0.00
2023-12-05T05:04:26.181Z,0.00
2023-12-05T05:05:26.063Z,0.00
2023-12-05T05:06:27.645Z,0.00
2023-12-05T05:07:25.973Z,0.00
2023-12-05T05:08:25.946Z,0.00
2023-12-05T05:09:25.955Z,0.00
2023-12-05T05:10:25.919Z,0.00
2023-12-05T05:11:25.914Z,0.00
2023-12-05T05:12:25.935Z,0.00
2023-12-05T05:13:25.883Z,0.00
2023-12-05T05:14:25.880Z,0.00
2023-12-05T05:15:25.880Z,0.00
2023-12-05T05:16:25.854Z,0.00
2023-12-05T05:17:25.850Z,0.00
2023-12-05T05:18:25.931Z,0.00
2023-12-05T05:19:26.094Z,0.00
2023-12-05T05:20:25.815Z,0.00
2023-12-05T05:21:25.841Z,0.00
2023-12-05T05:22:25.801Z,0.00
2023-12-05T05:23:25.862Z,0.00
2023-12-05T05:24:25.853Z,0.00
2023-12-05T05:25:25.859Z,0.00
2023-12-05T05:26:25.776Z,0.00
2023-12-05T05:27:25.771Z,0.00
2023-12-05T05:28:25.736Z,0.00
2023-12-05T05:29:25.718Z,0.00
2023-12-05T05:30:25.744Z,0.00
2023-12-05T05:31:25.698Z,0.00
2023-12-05T05:32:25.760Z,0.00
2023-12-05T05:33:25.790Z,0.00
2023-12-05T05:34:25.740Z,0.00
2023-12-05T05:35:25.652Z,0.00
2023-12-05T05:36:25.680Z,0.00
2023-12-05T05:37:25.638Z,0.00
2023-12-05T05:38:25.627Z,0.00
2023-12-05T05:39:25.668Z,0.00
2023-12-05T05:40:25.610Z,0.00
2023-12-05T05:41:25.577Z,0.00
2023-12-05T05:42:25.641Z,0.00
2023-12-05T05:43:25.572Z,0.00
2023-12-05T05:44:25.569Z,0.00
2023-12-05T05:45:25.593Z,0.00
2023-12-05T05:46:25.540Z,0.00
2023-12-05T05:47:25.524Z,0.00
2023-12-05T05:48:25.571Z,0.00
2023-12-05T05:49:25.576Z,0.00
2023-12-05T05:50:25.511Z,0.00
2023-12-05T05:51:25.518Z,0.00
2023-12-05T05:52:25.466Z,0.00
2023-12-05T05:53:25.451Z,0.00
2023-12-05T05:54:25.448Z,0.00
2023-12-05T05:55:25.439Z,0.00
2023-12-05T05:56:25.427Z,0.00
2023-12-05T05:57:25.451Z,0.00
2023-12-05T05:58:25.397Z,0.00
2023-12-05T05:59:25.369Z,0.00
2023-12-05T06:00:25.405Z,0.00
2023-12-05T06:01:25.376Z,0.00
2023-12-05T06:02:25.344Z,0.00
2023-12-05T06:03:25.407Z,0.00
2023-12-05T06:04:25.608Z,0.00
2023-12-05T06:05:25.368Z,0.00
2023-12-05T06:06:25.329Z,0.00
2023-12-05T06:07:25.300Z,0.00
2023-12-05T06:08:25.291Z,0.00
2023-12-05T06:09:25.282Z,0.00
2023-12-05T06:10:25.288Z,0.00
2023-12-05T06:11:25.271Z,0.00
2023-12-05T06:12:25.274Z,0.00
2023-12-05T06:13:25.238Z,0.00
2023-12-05T06:14:25.219Z,0.00
2023-12-05T06:15:25.221Z,0.00
2023-12-05T06:16:25.191Z,0.00
2023-12-05T06:17:25.216Z,0.00
2023-12-05T06:18:25.258Z,0.00
2023-12-05T06:19:25.183Z,0.00
2023-12-05T06:20:25.158Z,0.00
2023-12-05T06:21:25.164Z,0.00
2023-12-05T06:22:25.145Z,0.00
2023-12-05T06:23:25.127Z,0.00
2023-12-05T06:24:25.125Z,0.00
2023-12-05T06:25:25.099Z,0.00
2023-12-05T06:26:25.084Z,0.00
2023-12-05T06:27:25.072Z,0.00
2023-12-05T06:28:25.080Z,0.00
2023-12-05T06:29:25.043Z,0.00
2023-12-05T06:30:27.386Z,0.00
2023-12-05T06:31:25.063Z,0.00
2023-12-05T06:32:25.014Z,4.00
2023-12-05T06:33:25.139Z,4.00
2023-12-05T06:34:25.072Z,4.00
2023-12-05T06:35:24.991Z,4.00
2023-12-05T06:36:25.010Z,8.00
2023-12-05T06:37:24.972Z,4.00
2023-12-05T06:38:24.958Z,8.00
2023-12-05T06:39:24.967Z,8.00
2023-12-05T06:40:24.930Z,8.00
2023-12-05T06:41:24.912Z,8.00
2023-12-05T06:42:24.984Z,12.00
2023-12-05T06:43:24.886Z,16.00
2023-12-05T06:44:24.903Z,12.00
2023-12-05T06:45:24.922Z,16.00
2023-12-05T06:46:24.887Z,20.00
2023-12-05T06:47:24.894Z,28.00
2023-12-05T06:48:24.946Z,32.00
2023-12-05T06:49:24.914Z,32.00
2023-12-05T06:50:24.886Z,40.00
2023-12-05T06:51:24.823Z,48.00
2023-12-05T06:52:24.823Z,52.00
2023-12-05T06:53:24.787Z,60.00
2023-12-05T06:54:24.842Z,64.00
2023-12-05T06:55:24.758Z,76.00
2023-12-05T06:56:24.762Z,84.00
2023-12-05T06:57:24.773Z,96.00
2023-12-05T06:58:24.743Z,112.00
2023-12-05T06:59:24.725Z,132.00
2023-12-05T07:00:24.735Z,144.00
2023-12-05T07:01:24.675Z,148.00
2023-12-05T07:02:24.678Z,156.00
2023-12-05T07:03:24.819Z,172.00
2023-12-05T07:04:24.736Z,184.00
2023-12-05T07:05:24.783Z,192.00
2023-12-05T07:06:24.766Z,192.00
2023-12-05T07:07:24.616Z,196.00
2023-12-05T07:08:24.608Z,204.00
2023-12-05T07:09:24.612Z,212.00
2023-12-05T07:10:24.607Z,224.00
2023-12-05T07:11:24.582Z,240.00
2023-12-05T07:12:24.578Z,252.00
2023-12-05T07:13:24.561Z,260.00
2023-12-05T07:14:24.556Z,272.00
2023-12-05T07:15:24.563Z,292.00
2023-12-05T07:16:24.525Z,296.00
2023-12-05T07:17:24.543Z,332.00
2023-12-05T07:18:24.637Z,372.00
2023-12-05T07:19:24.589Z,372.00
2023-12-05T07:20:24.493Z,380.00
2023-12-05T07:21:24.508Z,372.00
2023-12-05T07:22:24.501Z,376.00
2023-12-05T07:23:24.455Z,376.00
2023-12-05T07:24:24.486Z,444.00
2023-12-05T07:25:24.415Z,468.00
2023-12-05T07:26:24.437Z,492.00
2023-12-05T07:27:24.398Z,484.00
2023-12-05T07:28:24.388Z,504.00
2023-12-05T07:29:24.360Z,528.00
2023-12-05T07:30:24.387Z,580.00
2023-12-05T07:31:24.343Z,576.00
2023-12-05T07:32:24.486Z,640.00
2023-12-05T07:33:24.468Z,640.00
2023-12-05T07:34:24.410Z,644.00
2023-12-05T07:35:24.312Z,648.00
2023-12-05T07:36:24.360Z,736.00
2023-12-05T07:37:24.289Z,752.00
2023-12-05T07:38:24.313Z,788.00
2023-12-05T07:39:24.301Z,788.00
2023-12-05T07:40:24.260Z,652.00
2023-12-05T07:41:24.244Z,656.00
2023-12-05T07:42:24.272Z,740.00
2023-12-05T07:43:24.227Z,768.00
2023-12-05T07:44:24.212Z,828.00
2023-12-05T07:45:24.223Z,684.00
2023-12-05T07:46:24.198Z,704.00
2023-12-05T07:47:24.183Z,832.00
2023-12-05T07:48:24.245Z,948.00
2023-12-05T07:49:24.204Z,1016.00
2023-12-05T07:50:24.140Z,1012.00
2023-12-05T07:51:25.015Z,1208.00
2023-12-05T07:52:24.118Z,1312.00
2023-12-05T07:53:24.118Z,1400.00
2023-12-05T07:54:24.097Z,1408.00
2023-12-05T07:55:24.085Z,1580.00
2023-12-05T07:56:24.106Z,1780.00
2023-12-05T07:57:24.098Z,1636.00
2023-12-05T07:58:24.057Z,1572.00
2023-12-05T07:59:24.115Z,1632.00
2023-12-05T08:00:24.101Z,1596.00
2023-12-05T08:01:24.023Z,1632.00
2023-12-05T08:02:24.018Z,1700.00
2023-12-05T08:03:24.132Z,1644.00
2023-12-05T08:04:24.097Z,1708.00
2023-12-05T08:05:23.999Z,1988.00
2023-12-05T08:06:24.004Z,2156.00
2023-12-05T08:07:24.751Z,2212.00
2023-12-05T08:08:23.941Z,2256.00
2023-12-05T08:09:23.948Z,2076.00
2023-12-05T08:10:23.922Z,2012.00
2023-12-05T08:11:23.919Z,2316.00
2023-12-05T08:12:23.958Z,2516.00
2023-12-05T08:13:23.898Z,2496.00
2023-12-05T08:14:23.884Z,2588.00
2023-12-05T08:15:23.941Z,2432.00
2023-12-05T08:16:23.852Z,2780.00
2023-12-05T08:17:23.877Z,2436.00
2023-12-05T08:18:23.914Z,2168.00
2023-12-05T08:19:23.859Z,2240.00
2023-12-05T08:20:23.799Z,2028.00
2023-12-05T08:21:23.880Z,2128.00
2023-12-05T08:22:23.792Z,2472.00
2023-12-05T08:23:23.778Z,2144.00
2023-12-05T08:24:23.793Z,2592.00
2023-12-05T08:25:23.749Z,2548.00
2023-12-05T08:26:23.747Z,2172.00
2023-12-05T08:27:23.756Z,1932.00
2023-12-05T08:28:23.716Z,2212.00
2023-12-05T08:29:23.708Z,2144.00
2023-12-05T08:30:23.737Z,1808.00
2023-12-05T08:31:23.681Z,1988.00
2023-12-05T08:32:23.675Z,2348.00
2023-12-05T08:33:23.886Z,2200.00
2023-12-05T08:34:23.726Z,2120.00
2023-12-05T08:35:23.721Z,2324.00
2023-12-05T08:36:23.672Z,2188.00
2023-12-05T08:37:23.623Z,2016.00
2023-12-05T08:38:23.628Z,1804.00
2023-12-05T08:39:23.631Z,2184.00
2023-12-05T08:40:23.589Z,2144.00
2023-12-05T08:41:23.567Z,2360.00
2023-12-05T08:42:23.598Z,2696.00
2023-12-05T08:43:23.547Z,2740.00
2023-12-05T08:44:23.522Z,2820.00
2023-12-05T08:45:23.581Z,3072.00
2023-12-05T08:46:23.517Z,3408.00
2023-12-05T08:47:23.549Z,2864.00
2023-12-05T08:48:23.648Z,2644.00
2023-12-05T08:49:23.556Z,2552.00
2023-12-05T08:50:23.473Z,2496.00
2023-12-05T08:51:23.470Z,2560.00
2023-12-05T08:52:23.431Z,2756.00
2023-12-05T08:53:23.438Z,3056.00
2023-12-05T08:54:23.468Z,2668.00
2023-12-05T08:55:23.429Z,2520.00
2023-12-05T08:56:23.390Z,2660.00
2023-12-05T08:57:23.386Z,3084.00
2023-12-05T08:58:23.366Z,2964.00
2023-12-05T08:59:23.378Z,3364.00
2023-12-05T09:00:23.394Z,3580.00
2023-12-05T09:01:23.358Z,4092.00
2023-12-05T09:02:23.367Z,3196.00
2023-12-05T09:03:23.508Z,3260.00
2023-12-05T09:04:23.411Z,2800.00
2023-12-05T09:05:23.374Z,3116.00
2023-12-05T09:06:23.411Z,3444.00
2023-12-05T09:07:23.391Z,2956.00
2023-12-05T09:08:23.348Z,3220.00
2023-12-05T09:09:23.307Z,3220.00
2023-12-05T09:10:23.268Z,3600.00
2023-12-05T09:11:23.262Z,2868.00
2023-12-05T09:12:23.274Z,3436.00
2023-12-05T09:13:23.267Z,3684.00
2023-12-05T09:14:23.225Z,3248.00
2023-12-05T09:15:23.768Z,3368.00
2023-12-05T09:16:23.177Z,3644.00
2023-12-05T09:17:23.174Z,3680.00
2023-12-05T09:18:23.257Z,2972.00
2023-12-05T09:19:23.225Z,3496.00
2023-12-05T09:20:23.138Z,4052.00
2023-12-05T09:21:23.165Z,4416.00
2023-12-05T09:22:23.112Z,4004.00
2023-12-05T09:23:23.114Z,3976.00
2023-12-05T09:24:23.146Z,4636.00
2023-12-05T09:25:23.106Z,4740.00
2023-12-05T09:26:24.127Z,3868.00
2023-12-05T09:27:23.122Z,3020.00
2023-12-05T09:28:23.049Z,3632.00
2023-12-05T09:29:23.050Z,3852.00
2023-12-05T09:30:23.072Z,2852.00
2023-12-05T09:31:23.020Z,3076.00
2023-12-05T09:32:23.065Z,3000.00
2023-12-05T09:33:23.059Z,3328.00
2023-12-05T09:34:23.007Z,3204.00
2023-12-05T09:35:22.977Z,3216.00
2023-12-05T09:36:23.007Z,2968.00
2023-12-05T09:37:22.956Z,3248.00
2023-12-05T09:38:22.957Z,3568.00
2023-12-05T09:39:22.926Z,4112.00
2023-12-05T09:40:22.925Z,4308.00
2023-12-05T09:41:22.912Z,5000.00
2023-12-05T09:42:23.014Z,3776.00
2023-12-05T09:43:22.916Z,4948.00
2023-12-05T09:44:22.876Z,4980.00
2023-12-05T09:45:22.905Z,4592.00
2023-12-05T09:46:22.850Z,3368.00
2023-12-05T09:47:22.828Z,4152.00
2023-12-05T09:48:22.982Z,4440.00
2023-12-05T09:49:22.979Z,3648.00
2023-12-05T09:50:22.874Z,4012.00
2023-12-05T09:51:22.785Z,4084.00
2023-12-05T09:52:22.773Z,3340.00
2023-12-05T09:53:22.759Z,3192.00
2023-12-05T09:54:22.761Z,3216.00
2023-12-05T09:55:22.768Z,3324.00
2023-12-05T09:56:22.734Z,3160.00
2023-12-05T09:57:22.753Z,2992.00
2023-12-05T09:58:22.706Z,3464.00
2023-12-05T09:59:22.715Z,3576.00
2023-12-05T10:00:22.711Z,3780.00
2023-12-05T10:01:22.672Z,4592.00
2023-12-05T10:02:22.730Z,6260.00
2023-12-05T10:03:22.783Z,5952.00
2023-12-05T10:04:22.746Z,5116.00
2023-12-05T10:05:22.727Z,4056.00
2023-12-05T10:06:22.632Z,5196.00
2023-12-05T10:07:22.604Z,4160.00
2023-12-05T10:08:22.583Z,3908.00
2023-12-05T10:09:22.639Z,3992.00
2023-12-05T10:10:22.600Z,3608.00
2023-12-05T10:11:22.580Z,3636.00
2023-12-05T10:12:22.580Z,3812.00
2023-12-05T10:13:22.550Z,4024.00
2023-12-05T10:14:22.537Z,3992.00
2023-12-05T10:15:22.558Z,3480.00
2023-12-05T10:16:22.505Z,3512.00
2023-12-05T10:17:22.500Z,3948.00
2023-12-05T10:18:22.666Z,4524.00
2023-12-05T10:19:22.609Z,5176.00
2023-12-05T10:20:22.549Z,4840.00
2023-12-05T10:21:22.508Z,4592.00
2023-12-05T10:22:22.442Z,4156.00
2023-12-05T10:23:22.436Z,4124.00
2023-12-05T10:24:22.487Z,3912.00
2023-12-05T10:25:22.419Z,3188.00
2023-12-05T10:26:22.392Z,3464.00
2023-12-05T10:27:22.442Z,3108.00
2023-12-05T10:28:22.377Z,3284.00
2023-12-05T10:29:22.374Z,3560.00
2023-12-05T10:30:22.371Z,3416.00
2023-12-05T10:31:22.359Z,3340.00
2023-12-05T10:32:22.334Z,3756.00
2023-12-05T10:33:22.486Z,3764.00
2023-12-05T10:34:22.357Z,3872.00
2023-12-05T10:35:22.311Z,4732.00
2023-12-05T10:36:22.333Z,4212.00
2023-12-05T10:37:22.273Z,3932.00
2023-12-05T10:38:22.268Z,3520.00
2023-12-05T10:39:22.296Z,3140.00
2023-12-05T10:40:22.246Z,4052.00
2023-12-05T10:41:22.218Z,4572.00
2023-12-05T10:42:22.270Z,3288.00
2023-12-05T10:43:22.198Z,3752.00
2023-12-05T10:44:22.186Z,4144.00
2023-12-05T10:45:22.223Z,3852.00
2023-12-05T10:46:22.160Z,4068.00
2023-12-05T10:47:22.162Z,3712.00
2023-12-05T10:48:22.214Z,3784.00
2023-12-05T10:49:22.320Z,3444.00
2023-12-05T10:50:22.125Z,3708.00
2023-12-05T10:51:22.134Z,3340.00
2023-12-05T10:52:22.110Z,2932.00
2023-12-05T10:53:22.101Z,3096.00
2023-12-05T10:54:22.099Z,3032.00
2023-12-05T10:55:22.078Z,2800.00
2023-12-05T10:56:22.069Z,2712.00
2023-12-05T10:57:22.096Z,2540.00
2023-12-05T10:58:22.044Z,2732.00
2023-12-05T10:59:22.023Z,2864.00
2023-12-05T11:00:22.044Z,3196.00
2023-12-05T11:01:22.061Z,3920.00
2023-12-05T11:02:22.035Z,4716.00
2023-12-05T11:03:22.157Z,5236.00
2023-12-05T11:04:22.019Z,5992.00
2023-12-05T11:05:21.960Z,6016.00
2023-12-05T11:06:22.007Z,5224.00
2023-12-05T11:07:21.930Z,5236.00
2023-12-05T11:08:21.911Z,4284.00
2023-12-05T11:09:21.931Z,4060.00
2023-12-05T11:10:21.888Z,4044.00
2023-12-05T11:11:21.878Z,3968.00
2023-12-05T11:12:21.895Z,3156.00
2023-12-05T11:13:21.872Z,3320.00
2023-12-05T11:14:21.899Z,3140.00
2023-12-05T11:15:21.901Z,2900.00
2023-12-05T11:16:21.854Z,2872.00
2023-12-05T11:17:21.831Z,2468.00
2023-12-05T11:18:21.883Z,2496.00
2023-12-05T11:19:21.901Z,2532.00
2023-12-05T11:20:21.785Z,2664.00
2023-12-05T11:21:21.811Z,2784.00
2023-12-05T11:22:21.771Z,2908.00
2023-12-05T11:23:21.769Z,3028.00
2023-12-05T11:24:21.759Z,2864.00
2023-12-05T11:25:21.764Z,2844.00
2023-12-05T11:26:21.728Z,2884.00
2023-12-05T11:27:21.733Z,3124.00
2023-12-05T11:28:21.696Z,3452.00
2023-12-05T11:29:22.144Z,3348.00
2023-12-05T11:30:21.703Z,3052.00
2023-12-05T11:31:21.678Z,2900.00
2023-12-05T11:32:21.656Z,2864.00
2023-12-05T11:33:21.925Z,2928.00
2023-12-05T11:34:21.768Z,2976.00
2023-12-05T11:35:21.747Z,3128.00
2023-12-05T11:36:21.616Z,3412.00
2023-12-05T11:37:21.845Z,3524.00
2023-12-05T11:38:21.873Z,3124.00
2023-12-05T11:39:21.621Z,2952.00
2023-12-05T11:40:22.837Z,3024.00
2023-12-05T11:41:21.568Z,3272.00
2023-12-05T11:42:21.582Z,3136.00
2023-12-05T11:43:21.537Z,2844.00
2023-12-05T11:44:21.637Z,2692.00
2023-12-05T11:45:21.789Z,2516.00
2023-12-05T11:46:21.489Z,2412.00
2023-12-05T11:47:21.476Z,2500.00
2023-12-05T11:48:21.531Z,2472.00
2023-12-05T11:49:21.487Z,2440.00
2023-12-05T11:50:21.452Z,2476.00
2023-12-05T11:51:21.531Z,2408.00
2023-12-05T11:52:21.439Z,2412.00
2023-12-05T11:53:21.435Z,2424.00
2023-12-05T11:54:21.447Z,2432.00
2023-12-05T11:55:21.407Z,2424.00
2023-12-05T11:56:21.381Z,2428.00
2023-12-05T11:57:21.432Z,2416.00
2023-12-05T11:58:21.411Z,2412.00
2023-12-05T11:59:21.363Z,2416.00
2023-12-05T12:00:21.370Z,2456.00
2023-12-05T12:01:21.404Z,2576.00
2023-12-05T12:02:21.318Z,2688.00
2023-12-05T12:03:21.378Z,2536.00
2023-12-05T12:04:21.462Z,2616.00
2023-12-05T12:05:21.299Z,2508.00
2023-12-05T12:06:21.309Z,2492.00
2023-12-05T12:07:21.258Z,2524.00
2023-12-05T12:08:21.255Z,2624.00
2023-12-05T12:09:21.267Z,2868.00
2023-12-05T12:10:21.463Z,2744.00
2023-12-05T12:11:21.215Z,2792.00
2023-12-05T12:12:21.298Z,2932.00
2023-12-05T12:13:21.311Z,3176.00
2023-12-05T12:14:21.184Z,3276.00
2023-12-05T12:15:21.199Z,3164.00
2023-12-05T12:16:21.290Z,3536.00
2023-12-05T12:17:21.155Z,4404.00
2023-12-05T12:18:21.265Z,3680.00
2023-12-05T12:19:21.345Z,3840.00
2023-12-05T12:20:21.260Z,3652.00
2023-12-05T12:21:21.129Z,4456.00
2023-12-05T12:22:21.080Z,4084.00
2023-12-05T12:23:21.110Z,3444.00
2023-12-05T12:24:21.249Z,3144.00
2023-12-05T12:25:21.165Z,3148.00
2023-12-05T12:26:21.062Z,3300.00
2023-12-05T12:27:21.066Z,3696.00
2023-12-05T12:28:21.031Z,3388.00
2023-12-05T12:29:21.016Z,3400.00
2023-12-05T12:30:20.999Z,3352.00
2023-12-05T12:31:20.996Z,3304.00
2023-12-05T12:32:21.003Z,3664.00
2023-12-05T12:33:21.048Z,4808.00
2023-12-05T12:34:21.002Z,5080.00
2023-12-05T12:35:20.950Z,5608.00
2023-12-05T12:36:21.095Z,4600.00
2023-12-05T12:37:22.366Z,5492.00
2023-12-05T12:38:20.929Z,4652.00
2023-12-05T12:39:20.930Z,3952.00
2023-12-05T12:40:21.184Z,4388.00
2023-12-05T12:41:20.903Z,4476.00
2023-12-05T12:42:20.915Z,4436.00
2023-12-05T12:43:20.839Z,4140.00
2023-12-05T12:44:20.836Z,8896.00